createdAt,value
2022-10-06T00:00:29.797Z,13
2022-10-06T00:02:31.767Z,13.1
2022-10-06T00:04:33.659Z,13
2022-10-06T00:06:35.594Z,13.1
2022-10-06T00:08:37.491Z,12.8
2022-10-06T00:10:42.555Z,12.8
2022-10-06T00:12:44.464Z,12.9
2022-10-06T00:14:46.408Z,12.8
2022-10-06T00:15:48.989Z,12.8
2022-10-06T00:17:50.853Z,12.7
2022-10-06T00:19:52.783Z,12.8
2022-10-06T00:21:54.693Z,12.8
2022-10-06T00:23:59.764Z,12.8
2022-10-06T00:26:01.702Z,12.6
2022-10-06T00:28:03.701Z,12.7
2022-10-06T00:30:05.565Z,12.6
2022-10-06T00:32:07.472Z,12.7
2022-10-06T00:34:09.401Z,12.8
2022-10-06T00:36:11.335Z,12.8
2022-10-06T00:38:16.409Z,12.8
2022-10-06T00:40:18.316Z,12.7
2022-10-06T00:42:20.246Z,12.8
2022-10-06T00:44:22.178Z,12.7
2022-10-06T00:46:24.105Z,12.8
2022-10-06T00:48:26.600Z,12.6
2022-10-06T00:50:27.923Z,12.6
2022-10-06T00:52:32.965Z,12.6
2022-10-06T00:54:34.903Z,12.7
2022-10-06T00:56:36.818Z,12.6
2022-10-06T00:58:38.763Z,12.5
2022-10-06T01:00:40.718Z,12.6
2022-10-06T01:02:42.725Z,12.6
2022-10-06T01:04:44.584Z,12.7
2022-10-06T01:06:49.631Z,12.7
2022-10-06T01:08:51.557Z,12.7
2022-10-06T01:10:53.478Z,12.5
2022-10-06T01:11:56.026Z,12.4
2022-10-06T01:13:57.958Z,12.6
2022-10-06T01:15:59.925Z,12.5
2022-10-06T01:18:01.834Z,12.4
2022-10-06T01:20:06.847Z,12.6
2022-10-06T01:22:08.771Z,12.5
2022-10-06T01:26:12.614Z,12.4
2022-10-06T01:28:14.596Z,12.5
2022-10-06T01:30:16.464Z,12.4
2022-10-06T01:32:18.406Z,12.4
2022-10-06T01:34:23.442Z,12.6
2022-10-06T01:36:25.376Z,12.5
2022-10-06T01:38:27.818Z,12.3
2022-10-06T01:40:29.317Z,12.3
2022-10-06T01:42:31.128Z,12.4
2022-10-06T01:44:33.067Z,12.3
2022-10-06T01:46:35.061Z,12.4
2022-10-06T01:48:40.091Z,12.3
2022-10-06T01:50:42.034Z,12.3
2022-10-06T01:52:43.959Z,12.3
2022-10-06T01:54:45.903Z,12.2
2022-10-06T01:56:47.832Z,12.3
2022-10-06T01:58:49.733Z,12.1
2022-10-06T02:00:51.662Z,12.2
2022-10-06T02:02:56.714Z,12.1
2022-10-06T02:04:58.626Z,12.1
2022-10-06T02:07:00.562Z,12.2
2022-10-06T02:09:29.212Z,12.1
2022-10-06T02:11:31.120Z,12.1
2022-10-06T02:13:33.037Z,12
2022-10-06T02:15:38.128Z,11.9
2022-10-06T02:17:40.031Z,11.9
2022-10-06T02:21:44.009Z,12
2022-10-06T02:23:45.916Z,11.9
2022-10-06T02:27:49.758Z,11.9
2022-10-06T02:29:54.921Z,11.6
2022-10-06T02:31:56.880Z,11.7
2022-10-06T02:33:58.829Z,11.8
2022-10-06T02:36:00.835Z,11.6
2022-10-06T02:38:02.806Z,11.6
2022-10-06T02:40:04.675Z,11.7
2022-10-06T02:42:06.607Z,11.6
2022-10-06T02:44:11.672Z,11.6
2022-10-06T02:46:13.676Z,11.6
2022-10-06T02:48:15.542Z,11.3
2022-10-06T02:50:17.444Z,11.4
2022-10-06T02:52:19.375Z,11.4
2022-10-06T02:56:23.238Z,11.5
2022-10-06T02:58:28.466Z,11.4
2022-10-06T03:02:33.759Z,11.4
2022-10-06T03:03:36.286Z,11.4
2022-10-06T03:05:38.297Z,11.3
2022-10-06T03:07:40.224Z,11.2
2022-10-06T03:09:42.152Z,11.3
2022-10-06T03:11:47.223Z,11.3
2022-10-06T03:13:49.262Z,11.3
2022-10-06T03:15:51.220Z,11.4
2022-10-06T03:17:53.087Z,11.2
2022-10-06T03:19:55.042Z,11.1
2022-10-06T03:21:56.962Z,11
2022-10-06T03:23:58.976Z,11.1
2022-10-06T03:26:04.038Z,11.1
2022-10-06T03:28:06.043Z,11.1
2022-10-06T03:30:07.912Z,11.1
2022-10-06T03:32:09.849Z,11.1
2022-10-06T03:34:11.809Z,11.1
2022-10-06T03:36:13.702Z,11.1
2022-10-06T03:38:15.772Z,11
2022-10-06T03:40:20.818Z,11.1
2022-10-06T03:42:22.755Z,11.1
2022-10-06T03:44:24.784Z,11.1
2022-10-06T03:46:26.946Z,11.1
2022-10-06T03:48:29.117Z,11
2022-10-06T03:50:30.892Z,11
2022-10-06T03:52:32.846Z,11
2022-10-06T03:54:37.983Z,11
2022-10-06T03:56:39.927Z,11
2022-10-06T03:58:42.032Z,11
2022-10-06T03:59:44.387Z,11
2022-10-06T04:01:46.469Z,11.1
2022-10-06T04:03:48.505Z,10.6
2022-10-06T04:05:50.311Z,11
2022-10-06T04:11:59.660Z,11
2022-10-06T04:14:01.593Z,10.9
2022-10-06T04:16:03.700Z,11
2022-10-06T04:18:05.521Z,10.9
2022-10-06T04:20:07.446Z,11
2022-10-06T04:22:12.717Z,10.8
2022-10-06T04:24:14.751Z,10.9
2022-10-06T04:26:16.804Z,10.9
2022-10-06T04:28:18.797Z,10.8
2022-10-06T04:30:20.767Z,10.9
2022-10-06T04:32:22.684Z,10.9
2022-10-06T04:34:24.765Z,10.8
2022-10-06T04:36:29.879Z,10.8
2022-10-06T04:38:32.331Z,10.8
2022-10-06T04:40:33.722Z,10.7
2022-10-06T04:42:35.779Z,10.9
2022-10-06T04:44:37.781Z,10.8
2022-10-06T04:46:43.607Z,10.6
2022-10-06T04:48:41.860Z,10.7
2022-10-06T04:50:47.714Z,10.5
2022-10-06T04:52:49.757Z,10.7
2022-10-06T04:54:51.766Z,10.5
2022-10-06T04:55:54.423Z,10.5
2022-10-06T05:02:00.561Z,10.4
2022-10-06T05:04:05.714Z,10.5
2022-10-06T05:06:07.750Z,10.4
2022-10-06T05:08:09.790Z,10.6
2022-10-06T05:10:11.817Z,10.4
2022-10-06T05:12:13.863Z,10.4
2022-10-06T05:22:26.983Z,10.5
2022-10-06T05:24:28.906Z,10.7
2022-10-06T05:26:30.824Z,10.5
2022-10-06T05:28:33.566Z,10.6
2022-10-06T05:30:34.880Z,10.5
2022-10-06T05:32:40.174Z,10.5
2022-10-06T05:34:42.086Z,10.4
2022-10-06T05:36:44.121Z,10.5
2022-10-06T05:38:46.156Z,10.3
2022-10-06T05:40:48.205Z,10.4
2022-10-06T05:42:50.214Z,10.5
2022-10-06T05:44:52.234Z,10.3
2022-10-06T05:46:57.503Z,10.4
2022-10-06T05:48:59.543Z,10.3
2022-10-06T05:51:01.514Z,10.3
2022-10-06T05:53:30.352Z,10.3
2022-10-06T05:57:34.408Z,10.5
2022-10-06T05:59:39.649Z,10.4
2022-10-06T06:01:41.737Z,10.3
2022-10-06T06:05:45.631Z,10.5
2022-10-06T06:09:49.717Z,10.6
2022-10-06T06:18:01.055Z,10.4
2022-10-06T06:20:03.093Z,10.5
2022-10-06T06:22:05.136Z,10.4
2022-10-06T06:24:07.139Z,10.4
2022-10-06T06:26:09.151Z,10.6
2022-10-06T06:28:14.462Z,10.7
2022-10-06T06:30:16.472Z,10.6
2022-10-06T06:32:18.509Z,10.6
2022-10-06T06:34:20.426Z,10.6
2022-10-06T06:36:22.355Z,10.9
2022-10-06T06:38:24.399Z,11.9
2022-10-06T06:40:26.467Z,13.7
2022-10-06T06:42:31.549Z,14.3
2022-10-06T06:44:33.470Z,13.7
2022-10-06T06:49:39.834Z,12.5
2022-10-06T06:51:41.791Z,11.8
2022-10-06T06:53:43.685Z,11.5
2022-10-06T06:57:50.673Z,13.2
2022-10-06T06:59:52.617Z,12.6
2022-10-06T07:01:54.533Z,11.9
2022-10-06T07:05:58.488Z,11.6
2022-10-06T07:08:00.402Z,12.2
2022-10-06T07:10:05.442Z,12.2
2022-10-06T07:12:07.356Z,12.2
2022-10-06T07:16:11.229Z,11.7
2022-10-06T07:18:13.129Z,11.8
2022-10-06T07:24:21.989Z,11.7
2022-10-06T07:26:23.937Z,11.9
2022-10-06T07:30:27.834Z,11.8
2022-10-06T07:32:29.758Z,12.1
2022-10-06T07:34:31.718Z,12.1
2022-10-06T07:36:33.600Z,12.3
2022-10-06T07:38:38.657Z,11.7
2022-10-06T07:40:46.191Z,12.4
2022-10-06T07:42:42.490Z,12.4
2022-10-06T07:43:45.044Z,12.2
2022-10-06T07:45:47.047Z,12.4
2022-10-06T07:47:48.971Z,12.5
2022-10-06T07:49:50.881Z,12.3
2022-10-06T07:51:55.952Z,12.7
2022-10-06T07:53:57.872Z,12.5
2022-10-06T07:55:59.823Z,12.9
2022-10-06T07:58:01.759Z,13
2022-10-06T08:00:03.672Z,13
2022-10-06T08:02:05.678Z,13
2022-10-06T08:04:07.525Z,13.2
2022-10-06T08:06:12.603Z,13.2
2022-10-06T08:08:14.517Z,13.1
2022-10-06T08:10:16.432Z,13.2
2022-10-06T08:12:18.354Z,13.3
2022-10-06T08:14:20.289Z,13.2
2022-10-06T08:16:22.286Z,13.7
2022-10-06T08:18:41.083Z,13.7
2022-10-06T08:22:31.130Z,13.8
2022-10-06T08:24:54.133Z,14
2022-10-06T08:26:35.005Z,14.2
2022-10-06T08:28:37.010Z,14.3
2022-10-06T08:30:38.820Z,14.4
2022-10-06T08:32:40.733Z,14
2022-10-06T08:34:45.822Z,14.2
2022-10-06T08:37:08.698Z,14
2022-10-06T08:38:49.609Z,14
2022-10-06T08:39:52.110Z,14.1
2022-10-06T08:41:54.038Z,14.5
2022-10-06T08:48:03.195Z,14.7
2022-10-06T08:50:05.123Z,14.4
2022-10-06T08:52:08.560Z,14.6
2022-10-06T08:54:10.446Z,14.9
2022-10-06T08:56:12.359Z,14.8
2022-10-06T08:58:14.268Z,14.3
2022-10-06T09:00:19.649Z,14.8
2022-10-06T09:02:21.309Z,14.5
2022-10-06T09:04:23.146Z,14.5
2022-10-06T09:06:25.045Z,14.7
2022-10-06T09:08:26.917Z,14.7
2022-10-06T09:10:28.830Z,15.1
2022-10-06T09:12:30.751Z,14.7
2022-10-06T09:14:32.656Z,14.8
2022-10-06T09:57:51.912Z,15.6
2022-10-06T10:04:18.767Z,15.9
2022-10-06T10:05:59.533Z,15.6
2022-10-06T10:10:03.324Z,15.9
2022-10-06T10:12:08.356Z,15.9
2022-10-06T10:14:10.283Z,16.1
2022-10-06T10:16:12.278Z,15.7
2022-10-06T10:18:14.109Z,15.7
2022-10-06T10:20:16.011Z,15.5
2022-10-06T10:22:17.954Z,15.6
2022-10-06T10:24:19.845Z,15.8
2022-10-06T10:26:24.851Z,15.9
2022-10-06T10:28:27.034Z,16.1
2022-10-06T10:30:28.649Z,16.3
2022-10-06T10:31:31.294Z,17.6
2022-10-06T10:33:33.059Z,18.4
2022-10-06T10:35:34.960Z,17.9
2022-10-06T10:37:36.871Z,17.4
2022-10-06T10:39:41.892Z,16.3
2022-10-06T10:41:43.791Z,16.6
2022-10-06T10:43:45.679Z,16.4
2022-10-06T10:45:47.592Z,16.4
2022-10-06T10:47:49.458Z,16.1
2022-10-06T10:49:51.365Z,15.8
2022-10-06T10:51:53.244Z,16.2
2022-10-06T10:56:00.173Z,16.6
2022-10-06T10:58:02.083Z,16.5
2022-10-06T11:00:03.972Z,16.8
2022-10-06T11:02:05.941Z,16.7
2022-10-06T11:04:07.726Z,17
2022-10-06T11:06:09.646Z,17.1
2022-10-06T11:08:14.653Z,17.2
2022-10-06T11:10:16.564Z,17.4
2022-10-06T11:12:18.424Z,17.3
2022-10-06T11:14:20.329Z,17.2
2022-10-06T11:16:22.264Z,17.1
2022-10-06T11:20:25.982Z,16.9
2022-10-06T11:22:31.035Z,17.3
2022-10-06T11:24:32.921Z,17.3
2022-10-06T11:26:34.787Z,17.2
2022-10-06T11:29:39.201Z,17.3
2022-10-06T11:31:41.174Z,17.4
2022-10-06T11:33:42.951Z,17.4
2022-10-06T11:35:47.994Z,17.2
2022-10-06T11:37:49.859Z,17.2
2022-10-06T11:39:51.747Z,17.4
2022-10-06T11:41:53.656Z,17.7
2022-10-06T11:43:55.532Z,17.6
2022-10-06T11:45:57.490Z,17.6
2022-10-06T11:47:59.305Z,17.5
2022-10-06T11:50:04.324Z,17.5
2022-10-06T11:56:09.965Z,17.6
2022-10-06T11:58:37.555Z,17.5
2022-10-06T12:00:13.731Z,17.4
2022-10-06T12:02:15.703Z,17.6
2022-10-06T12:04:24.261Z,17.7
2022-10-06T12:06:22.503Z,17.3
2022-10-06T12:08:24.371Z,17.8
2022-10-06T12:10:26.254Z,18
2022-10-06T12:12:28.187Z,17.5
2022-10-06T12:17:05.958Z,17.7
2022-10-06T12:18:37.018Z,17.6
2022-10-06T12:20:38.846Z,17.5
2022-10-06T12:22:40.688Z,17.3
2022-10-06T12:23:43.192Z,17.6
2022-10-06T12:25:45.223Z,17.6
2022-10-06T12:27:46.954Z,17.9
2022-10-06T12:29:48.826Z,17.7
2022-10-06T12:31:53.831Z,17.9
2022-10-06T12:33:55.721Z,18
2022-10-06T12:35:57.611Z,17.7
2022-10-06T12:37:59.472Z,18.6
2022-10-06T12:40:01.360Z,18
2022-10-06T12:42:03.221Z,18
2022-10-06T12:44:05.121Z,18.1
2022-10-06T12:46:10.155Z,17.5
2022-10-06T12:48:12.004Z,17.3
2022-10-06T12:50:13.875Z,17.6
2022-10-06T12:52:15.737Z,17.7
2022-10-06T12:54:17.611Z,17.8
2022-10-06T12:56:19.479Z,18
2022-10-06T12:58:21.349Z,16.9
2022-10-06T13:02:28.341Z,17.2
2022-10-06T13:04:30.125Z,17
2022-10-06T13:08:33.878Z,17.5
2022-10-06T13:12:37.626Z,17.5
2022-10-06T13:14:42.654Z,16.9
2022-10-06T13:16:44.556Z,17
2022-10-06T13:18:46.401Z,17
2022-10-06T13:21:14.949Z,17.4
2022-10-06T13:25:18.738Z,16.9
2022-10-06T13:27:23.750Z,18.3
2022-10-06T13:33:29.392Z,19.4
2022-10-06T13:43:41.829Z,19.4
2022-10-06T13:47:45.537Z,19.2
2022-10-06T13:49:47.378Z,19
2022-10-06T13:51:49.277Z,19.4
2022-10-06T13:53:51.064Z,19.7
2022-10-06T13:57:57.895Z,20.2
2022-10-06T14:00:00.124Z,19.1
2022-10-06T14:02:01.528Z,18.7
2022-10-06T14:04:03.366Z,18.8
2022-10-06T14:06:05.195Z,18.5
2022-10-06T14:10:12.009Z,19.2
2022-10-06T14:12:13.824Z,19.8
2022-10-06T14:15:18.154Z,20.3
2022-10-06T14:17:19.991Z,20.4
2022-10-06T14:19:21.812Z,20.3
2022-10-06T14:21:23.654Z,20.8
2022-10-06T14:23:28.643Z,20.7
2022-10-06T14:25:30.460Z,20.5
2022-10-06T14:27:32.292Z,20.5
2022-10-06T14:29:34.124Z,21.1
2022-10-06T14:33:37.904Z,21.2
2022-10-06T14:35:39.602Z,21.4
2022-10-06T14:37:44.596Z,21.1
2022-10-06T14:41:48.378Z,18.3
2022-10-06T14:43:51.640Z,17.8
2022-10-06T14:45:53.508Z,18.7
2022-10-06T14:47:55.264Z,20
2022-10-06T14:52:02.104Z,17.3
2022-10-06T14:56:05.799Z,16.9
2022-10-06T14:58:07.662Z,17
2022-10-06T15:00:09.516Z,16.9
2022-10-06T15:02:11.348Z,16.5
2022-10-06T15:06:18.245Z,16.7
2022-10-06T15:08:20.104Z,16.6
2022-10-06T15:10:21.968Z,16.8
2022-10-06T15:11:24.492Z,16.2
2022-10-06T15:17:30.114Z,16.4
2022-10-06T15:19:35.153Z,16.5
2022-10-06T15:23:38.903Z,16.8
2022-10-06T15:25:40.778Z,16.7
2022-10-06T15:33:53.189Z,16.8
2022-10-06T15:35:53.379Z,16.8
2022-10-06T15:37:55.246Z,17
2022-10-06T15:39:57.333Z,16.5
2022-10-06T15:41:59.042Z,16.5
2022-10-06T15:44:00.940Z,16.5
2022-10-06T15:46:02.909Z,16.4
2022-10-06T15:48:07.868Z,16.4
2022-10-06T15:50:09.756Z,16.2
2022-10-06T15:52:11.653Z,16.2
2022-10-06T15:54:13.535Z,16.2
2022-10-06T15:56:15.431Z,16.4
2022-10-06T15:58:17.321Z,16.5
2022-10-06T16:00:19.213Z,16.3
2022-10-06T16:02:24.375Z,16.3
2022-10-06T16:04:26.166Z,16.3
2022-10-06T16:06:28.078Z,16.2
2022-10-06T16:07:30.589Z,16.1
2022-10-06T16:09:32.486Z,15.7
2022-10-06T16:11:34.389Z,16.1
2022-10-06T16:13:36.263Z,15.7
2022-10-06T16:15:41.322Z,16.1
2022-10-06T16:17:43.186Z,15.9
2022-10-06T16:19:45.109Z,15.9
2022-10-06T16:21:46.989Z,15.8
2022-10-06T16:23:48.981Z,15.7
2022-10-06T16:25:50.812Z,15.6
2022-10-06T16:27:52.701Z,15.8
2022-10-06T16:29:57.749Z,15.7
2022-10-06T16:31:59.674Z,15.7
2022-10-06T16:34:01.582Z,15.4
2022-10-06T16:36:03.522Z,15.3
2022-10-06T16:38:05.420Z,15.3
2022-10-06T16:40:07.330Z,15.3
2022-10-06T16:42:09.234Z,15.1
2022-10-06T16:44:14.276Z,15.1
2022-10-06T16:46:16.225Z,15
2022-10-06T16:48:18.099Z,14.8
2022-10-06T16:50:19.990Z,15.1
2022-10-06T16:54:23.801Z,14.9
2022-10-06T16:56:25.722Z,14.9
2022-10-06T16:58:30.797Z,14.7
2022-10-06T17:00:32.733Z,14.7
2022-10-06T17:02:34.612Z,14.9
2022-10-06T17:05:03.235Z,14.5
2022-10-06T17:07:05.156Z,14.6
2022-10-06T17:09:07.029Z,14.6
2022-10-06T17:13:13.997Z,14.3
2022-10-06T17:15:15.907Z,14.4
2022-10-06T17:17:17.985Z,14.4
2022-10-06T17:19:19.755Z,14.3
2022-10-06T17:21:44.229Z,14.3
2022-10-06T17:23:23.570Z,14.1
2022-10-06T17:25:28.622Z,14
2022-10-06T17:27:30.556Z,14.1
2022-10-06T17:31:34.421Z,13.8
2022-10-06T17:33:36.300Z,14.1
2022-10-06T17:35:38.227Z,13.8
2022-10-06T17:37:40.135Z,13.6
2022-10-06T17:41:47.139Z,13.8
2022-10-06T17:43:49.070Z,13.6
2022-10-06T17:45:51.037Z,13.6
2022-10-06T17:47:52.904Z,13.6
2022-10-06T17:49:54.820Z,13.5
2022-10-06T17:51:56.749Z,13.4
2022-10-06T17:56:03.692Z,13.7
2022-10-06T17:58:05.631Z,13.4
2022-10-06T17:59:08.147Z,13.4
2022-10-06T18:01:10.146Z,13.3
2022-10-06T18:03:11.969Z,13.2
2022-10-06T18:05:13.882Z,13
2022-10-06T18:07:18.923Z,12.8
2022-10-06T18:13:24.681Z,12.7
2022-10-06T18:15:26.573Z,13
2022-10-06T18:21:35.509Z,12.9
2022-10-06T18:27:41.410Z,12.7
2022-10-06T18:29:43.184Z,12.7
2022-10-06T18:31:45.144Z,12.8
2022-10-06T18:36:12.040Z,12.7
2022-10-06T18:37:56.539Z,12.8
2022-10-06T18:39:55.963Z,12.7
2022-10-06T18:41:57.876Z,12.6
2022-10-06T18:43:59.807Z,12.6
2022-10-06T18:46:01.775Z,12.7
2022-10-06T18:48:03.687Z,12.6
2022-10-06T19:01:21.258Z,12.4
2022-10-06T19:03:26.075Z,12.5
2022-10-06T19:05:27.998Z,12.4
2022-10-06T19:07:29.948Z,12.3
2022-10-06T19:09:31.991Z,11.9
2022-10-06T19:11:34.034Z,11.7
2022-10-06T19:13:36.055Z,11.8
2022-10-06T19:15:38.115Z,11.7
2022-10-06T19:17:43.262Z,11.7
2022-10-06T19:19:44.973Z,11.8
2022-10-06T19:21:46.925Z,11.8
2022-10-06T19:23:48.862Z,11.7
2022-10-06T19:25:50.791Z,11.6
2022-10-06T19:27:52.721Z,11.6
2022-10-06T19:29:54.790Z,11.6
2022-10-06T19:31:59.689Z,11.5
2022-10-06T19:34:01.623Z,11.3
2022-10-06T19:36:03.655Z,11.4
2022-10-06T19:38:05.671Z,11.5
2022-10-06T19:40:07.609Z,11.2
2022-10-06T19:42:09.530Z,11.4
2022-10-06T19:46:17.051Z,11.2
2022-10-06T19:48:18.800Z,11.3
2022-10-06T19:50:20.823Z,11.1
2022-10-06T19:51:23.451Z,11
2022-10-06T19:53:25.494Z,11.2
2022-10-06T19:55:27.434Z,10.8
2022-10-06T19:57:29.413Z,10.7
2022-10-06T19:59:34.615Z,10.9
2022-10-06T20:01:36.779Z,11
2022-10-06T20:03:38.725Z,10.7
2022-10-06T20:05:40.748Z,11.1
2022-10-06T20:07:43.157Z,10.7
2022-10-06T20:09:44.875Z,10.8
2022-10-06T20:11:46.868Z,10.7
2022-10-06T20:13:52.125Z,10.9
2022-10-06T20:15:54.166Z,10.6
2022-10-06T20:17:56.213Z,10.8
2022-10-06T20:19:58.242Z,10.6
2022-10-06T20:22:00.274Z,10.6
2022-10-06T20:24:02.824Z,10.6
2022-10-06T20:26:04.870Z,10.7
2022-10-06T20:28:10.227Z,10.6
2022-10-06T20:30:12.170Z,10.6
2022-10-06T20:32:14.225Z,10.6
2022-10-06T20:34:16.245Z,10.7
2022-10-06T20:36:19.827Z,10.4
2022-10-06T20:40:23.857Z,10.5
2022-10-06T20:46:33.128Z,10.4
2022-10-06T20:51:04.044Z,10.3
2022-10-06T20:53:06.053Z,10.1
2022-10-06T20:57:13.390Z,10.3
2022-10-06T20:59:15.411Z,10.3
2022-10-06T21:01:17.528Z,10.3
2022-10-06T21:03:19.511Z,10.2
2022-10-06T21:07:23.594Z,10.2
2022-10-06T21:11:30.874Z,10.2
2022-10-06T21:13:32.929Z,10.2
2022-10-06T21:15:35.019Z,10.2
2022-10-06T21:17:36.999Z,10.3
2022-10-06T21:19:39.020Z,10.2
2022-10-06T21:21:41.037Z,10.3
2022-10-06T21:23:46.287Z,10.2
2022-10-06T21:25:48.308Z,10.2
2022-10-06T21:27:50.366Z,10.3
2022-10-06T21:29:52.382Z,10.2
2022-10-06T21:31:54.431Z,10.2
2022-10-06T21:33:56.446Z,10.3
2022-10-06T21:35:58.499Z,10
2022-10-06T21:38:03.748Z,10
2022-10-06T21:40:05.799Z,10
2022-10-06T21:42:07.840Z,10
2022-10-06T21:43:10.466Z,10
2022-10-06T21:59:29.904Z,10.5
2022-10-06T22:01:31.990Z,10.6
2022-10-06T22:03:33.979Z,10.8
2022-10-06T22:05:39.214Z,11
2022-10-06T22:07:41.590Z,10.9
2022-10-06T22:11:45.334Z,11.2
2022-10-06T22:13:47.367Z,11.2
2022-10-06T22:15:49.481Z,11.3
2022-10-06T22:17:51.445Z,11.5
2022-10-06T22:19:56.730Z,11.2
2022-10-06T22:21:58.766Z,11.5
2022-10-06T22:24:00.764Z,11.3
2022-10-06T22:26:02.803Z,11.3
2022-10-06T22:30:06.862Z,11.3
2022-10-06T22:32:08.995Z,11.1
2022-10-06T22:34:14.193Z,11.3
2022-10-06T22:36:16.209Z,11.3
2022-10-06T22:38:18.244Z,11.3
2022-10-06T22:43:24.992Z,11.3
2022-10-06T22:45:26.973Z,11.4
2022-10-06T22:47:32.267Z,11.2
2022-10-06T22:49:34.318Z,11.5
2022-10-06T22:51:36.302Z,11.4
2022-10-06T22:53:38.327Z,11.1
2022-10-06T22:55:40.380Z,11.2
2022-10-06T22:57:42.700Z,11.3
2022-10-06T22:59:44.501Z,11.3
2022-10-06T23:05:53.846Z,11.2
2022-10-06T23:07:55.894Z,11.3
2022-10-06T23:09:57.954Z,11.3
2022-10-06T23:11:59.976Z,11
2022-10-06T23:14:02.010Z,11.5
2022-10-06T23:16:08.006Z,11.3
2022-10-06T23:18:09.279Z,11.3
2022-10-06T23:20:11.356Z,11.3
2022-10-06T23:22:13.339Z,11.3
2022-10-06T23:24:15.423Z,11.2
2022-10-06T23:26:17.440Z,11.3
2022-10-06T23:30:24.785Z,11.3
2022-10-06T23:32:26.744Z,11.2
2022-10-06T23:34:28.708Z,11.2
2022-10-06T23:35:31.317Z,11
2022-10-06T23:37:33.397Z,11.4
2022-10-06T23:39:35.453Z,10.9
2022-10-06T23:41:37.477Z,11
2022-10-06T23:43:42.589Z,11.1
2022-10-06T23:45:44.726Z,11
2022-10-06T23:47:47.006Z,11
2022-10-06T23:49:48.729Z,11
2022-10-06T23:51:50.942Z,11.1
2022-10-06T23:53:52.831Z,10.9
2022-10-06T23:55:54.826Z,10.8
2022-10-06T23:57:59.967Z,11
